Time;durP1;ratioP1;P1;durP2;ratioP2;P2;SDS_P1;SDS_P2;PMS_P1;PMS_P2;Temp;Humidity;BMP_temperature;BMP_pressure;BME280_temperature;BME280_humidity;BME280_pressure;Samples;Min_cycle;Max_cycle;Signal;HPM_P1;HPM_P2
2023/08/10 00:02:06;;;;;;;7.38;5.03;;;22.40;86.70;;;;;;7404603;19;20058;-78
2023/08/10 00:04:36;;;;;;;12.07;5.50;;;22.40;86.90;;;;;;7382088;19;20007;-77
2023/08/10 00:07:04;;;;;;;10.00;4.95;;;22.30;87.30;;;;;;7382885;19;20006;-77
2023/08/10 00:09:34;;;;;;;7.00;4.68;;;22.30;87.70;;;;;;7381407;19;20027;-77
2023/08/10 00:12:03;;;;;;;11.20;4.20;;;22.30;88.60;;;;;;7380054;19;20039;-77
2023/08/10 00:14:34;;;;;;;8.02;4.35;;;22.20;87.50;;;;;;7401786;19;20015;-76
2023/08/10 00:17:05;;;;;;;13.15;4.85;;;22.30;87.40;;;;;;7381476;19;20390;-76
2023/08/10 00:19:34;;;;;;;7.63;4.03;;;22.30;87.40;;;;;;7380786;19;20022;-77
2023/08/10 00:22:02;;;;;;;7.53;4.07;;;22.30;87.10;;;;;;7382291;19;20010;-76
2023/08/10 00:24:31;;;;;;;13.80;5.15;;;22.30;87.10;;;;;;7381793;19;20066;-77
2023/08/10 00:30:15;;;;;;;10.80;5.03;;;22.30;87.10;;;;;;7380119;19;19995;-78
2023/08/10 00:32:46;;;;;;;12.32;4.63;;;22.30;87.10;;;;;;7382842;19;20011;-77
2023/08/10 00:35:15;;;;;;;10.18;4.78;;;22.20;87.10;;;;;;7405053;19;20011;-78
2023/08/10 00:37:43;;;;;;;11.20;4.63;;;22.20;86.90;;;;;;7381312;19;20002;-79
2023/08/10 00:40:13;;;;;;;8.60;4.57;;;22.20;87.10;;;;;;7382047;19;20007;-78
2023/08/10 00:42:42;;;;;;;9.38;4.82;;;22.20;88.00;;;;;;7381397;19;20027;-78
2023/08/10 00:45:14;;;;;;;11.02;4.70;;;22.20;86.80;;;;;;7381034;19;20024;-76
2023/08/10 00:47:43;;;;;;;12.73;3.70;;;22.20;86.60;;;;;;7380697;19;20020;-77
2023/08/10 00:50:12;;;;;;;8.05;4.40;;;22.20;86.80;;;;;;7400682;19;20021;-77
2023/08/10 00:52:39;;;;;;;6.53;4.10;;;22.20;87.20;;;;;;7379990;19;20016;-76
2023/08/10 00:55:09;;;;;;;11.20;3.85;;;22.10;87.30;;;;;;7380020;19;20311;-77
2023/08/10 00:57:39;;;;;;;12.23;4.30;;;22.10;87.10;;;;;;7380022;19;20066;-77
2023/08/10 01:00:10;;;;;;;13.57;3.97;;;22.10;87.00;;;;;;7380259;19;20389;-77
2023/08/10 01:02:41;;;;;;;6.05;3.70;;;22.10;87.10;;;;;;7380036;19;20027;-76
2023/08/10 01:05:12;;;;;;;10.32;4.45;;;22.10;87.10;;;;;;7401519;19;20047;-77
2023/08/10 01:07:49;;;;;;;7.15;4.30;;;22.10;87.10;;;;;;7379362;19;20304;-77
2023/08/10 01:10:29;;;;;;;6.28;4.10;;;22.00;87.40;;;;;;7379544;19;20023;-77
2023/08/10 01:13:04;;;;;;;10.60;4.40;;;22.00;87.50;;;;;;7380357;19;19999;-77
2023/08/10 01:15:40;;;;;;;13.05;4.93;;;21.90;87.60;;;;;;7380133;19;20011;-77
2023/08/10 01:18:15;;;;;;;9.68;4.80;;;21.90;87.70;;;;;;7379998;19;20015;-77
2023/08/10 01:20:45;;;;;;;12.93;4.53;;;21.90;87.90;;;;;;7380392;19;20017;-77
2023/08/10 01:23:21;;;;;;;7.35;4.07;;;21.90;87.90;;;;;;7401341;19;20328;-77
2023/08/10 01:25:54;;;;;;;8.13;4.28;;;21.80;87.50;;;;;;7378969;19;20017;-77
2023/08/10 01:28:25;;;;;;;6.50;3.95;;;21.80;87.00;;;;;;7378791;19;20024;-76
2023/08/10 01:30:54;;;;;;;7.28;3.53;;;21.80;87.30;;;;;;7379564;19;20003;-77
2023/08/10 01:33:22;;;;;;;7.65;4.32;;;21.80;87.50;;;;;;7379067;19;20357;-77
2023/08/10 01:35:51;;;;;;;13.65;4.40;;;21.80;87.40;;;;;;7379744;19;20363;-78
2023/08/10 01:38:20;;;;;;;9.05;4.25;;;21.80;88.20;;;;;;7401948;19;20062;-77
2023/08/10 01:40:50;;;;;;;9.25;4.28;;;21.80;87.60;;;;;;7384912;19;20019;-77
2023/08/10 01:43:21;;;;;;;6.23;3.80;;;21.80;87.20;;;;;;7390505;19;20029;-77
2023/08/10 01:45:54;;;;;;;7.75;4.97;;;21.80;87.20;;;;;;7394159;19;20010;-77
2023/08/10 01:48:27;;;;;;;16.83;4.20;;;21.80;87.30;;;;;;7389784;19;20016;-77
2023/08/10 01:50:58;;;;;;;9.10;4.38;;;21.80;87.30;;;;;;7380231;19;20410;-76
2023/08/10 01:53:31;;;;;;;8.85;4.82;;;21.80;87.30;;;;;;7399458;19;20048;-77
2023/08/10 01:56:01;;;;;;;6.75;4.30;;;21.70;87.30;;;;;;7378192;19;20390;-76
2023/08/10 01:58:33;;;;;;;9.73;4.93;;;21.70;87.20;;;;;;7378292;19;20035;-75
2023/08/10 02:01:03;;;;;;;8.80;4.72;;;21.60;87.60;;;;;;7378104;19;20269;-76
2023/08/10 02:03:32;;;;;;;13.88;4.80;;;21.60;87.70;;;;;;7379528;19;20017;-78
2023/08/10 02:06:01;;;;;;;9.88;4.43;;;21.60;88.00;;;;;;7378218;19;20019;-77
2023/08/10 02:08:29;;;;;;;8.30;4.53;;;21.50;88.30;;;;;;7399221;19;20063;-77
2023/08/10 02:10:58;;;;;;;7.35;4.15;;;21.60;89.00;;;;;;7377328;19;20066;-77
2023/08/10 02:13:27;;;;;;;9.93;4.53;;;21.60;87.60;;;;;;7378670;19;20006;-78
2023/08/10 02:15:58;;;;;;;8.45;4.13;;;21.60;87.60;;;;;;7378812;19;20251;-77
2023/08/10 02:18:27;;;;;;;7.47;4.28;;;21.60;87.60;;;;;;7378521;19;20235;-77
2023/08/10 02:20:56;;;;;;;6.20;4.47;;;21.60;87.60;;;;;;7378315;19;20062;-77
2023/08/10 02:23:24;;;;;;;9.48;4.10;;;21.60;87.50;;;;;;7399426;19;20019;-77
2023/08/10 02:25:53;;;;;;;8.10;4.15;;;21.60;87.60;;;;;;7377253;19;20015;-76
2023/08/10 02:28:24;;;;;;;10.55;4.47;;;21.50;87.60;;;;;;7377320;19;20006;-77
2023/08/10 02:30:53;;;;;;;8.60;4.13;;;21.50;87.80;;;;;;7377080;19;20003;-77
2023/08/10 02:33:24;;;;;;;9.55;4.60;;;21.40;88.00;;;;;;7377406;19;20031;-77
2023/08/10 02:35:53;;;;;;;;;;;21.40;87.90;;;;;;7383997;19;20112;-77
2023/08/10 02:38:22;;;;;;;6.30;4.43;;;21.40;87.90;;;;;;7406604;19;19914;-77
2023/08/10 02:40:50;;;;;;;6.18;4.35;;;21.40;87.80;;;;;;7384143;19;20260;-77
2023/08/10 02:43:19;;;;;;;9.70;4.93;;;21.40;87.70;;;;;;7384286;19;20007;-77
2023/08/10 02:45:48;;;;;;;16.27;4.00;;;21.50;87.60;;;;;;7383310;19;20023;-77
2023/08/10 02:48:19;;;;;;;7.18;3.97;;;21.40;87.50;;;;;;7384096;19;20024;-77
2023/08/10 02:50:52;;;;;;;7.78;4.70;;;21.50;87.60;;;;;;7382115;19;20665;-77
2023/08/10 02:53:20;;;;;;;;;;;21.50;87.50;;;;;;7406687;19;20067;-78
2023/08/10 02:55:49;;;;;;;11.45;4.53;;;21.50;87.30;;;;;;7388096;19;19914;-77
2023/08/10 02:58:17;;;;;;;11.07;4.95;;;21.50;87.00;;;;;;7383796;19;20059;-77
2023/08/10 03:00:46;;;;;;;10.60;4.22;;;21.50;87.20;;;;;;7384330;19;20031;-76
2023/08/10 03:03:15;;;;;;;10.48;5.28;;;21.50;86.70;;;;;;7384942;19;20010;-78
2023/08/10 03:05:44;;;;;;;13.07;4.63;;;21.50;86.70;;;;;;7382963;19;20020;-77
2023/08/10 03:08:15;;;;;;;7.43;4.75;;;21.50;87.00;;;;;;7404935;19;20007;-77
2023/08/10 03:10:44;;;;;;;;;;;21.40;87.20;;;;;;7382031;19;20024;-77
2023/08/10 03:13:12;;;;;;;9.98;5.80;;;21.40;87.50;;;;;;7382494;19;19911;-77
2023/08/10 03:15:41;;;;;;;18.02;4.70;;;21.30;87.50;;;;;;7383605;19;20011;-77
2023/08/10 03:18:10;;;;;;;13.38;4.68;;;21.30;87.10;;;;;;7384133;19;20361;-77
2023/08/10 03:20:39;;;;;;;16.25;4.57;;;21.30;87.10;;;;;;7383160;19;20101;-77
2023/08/10 03:23:07;;;;;;;15.07;4.97;;;21.30;87.90;;;;;;7406097;19;20371;-77
2023/08/10 03:25:39;;;;;;;8.57;4.35;;;21.30;87.40;;;;;;7382576;19;20127;-76
2023/08/10 03:28:08;;;;;;;;;;;21.20;87.40;;;;;;7383906;19;20014;-76
2023/08/10 03:30:36;;;;;;;5.93;4.20;;;21.20;87.30;;;;;;7382045;19;19918;-76
2023/08/10 03:33:06;;;;;;;8.73;3.88;;;21.20;87.30;;;;;;7383009;19;20026;-77
2023/08/10 03:35:35;;;;;;;6.97;4.35;;;21.20;87.30;;;;;;7382507;19;20011;-78
2023/08/10 03:38:03;;;;;;;12.15;4.00;;;21.10;87.10;;;;;;7404840;19;20023;-75
2023/08/10 03:40:32;;;;;;;6.97;4.20;;;21.10;87.20;;;;;;7382080;19;20093;-77
2023/08/10 03:43:03;;;;;;;9.32;4.70;;;21.10;87.30;;;;;;7382186;19;20374;-76
2023/08/10 03:45:32;;;;;;;;;;;21.10;87.80;;;;;;7393193;19;19998;-77
2023/08/10 03:48:01;;;;;;;8.20;4.13;;;21.10;87.90;;;;;;7404244;19;19911;-77
2023/08/10 03:50:29;;;;;;;7.82;4.53;;;21.00;87.50;;;;;;7428054;19;20026;-77
2023/08/10 03:52:58;;;;;;;7.82;4.60;;;21.00;87.60;;;;;;7400955;19;20003;-77
2023/08/10 03:55:28;;;;;;;8.15;4.68;;;21.00;88.00;;;;;;7393184;19;20006;-78
2023/08/10 03:57:56;;;;;;;23.75;4.70;;;20.90;88.10;;;;;;7383699;19;20003;-77
2023/08/10 04:00:28;;;;;;;8.80;4.72;;;20.90;88.10;;;;;;7381958;19;20106;-77
2023/08/10 04:02:56;;;;;;;;;;;20.90;88.10;;;;;;7385789;19;20073;-77
2023/08/10 04:05:25;;;;;;;12.07;4.60;;;21.00;88.30;;;;;;7403730;19;20445;-77
2023/08/10 04:07:54;;;;;;;11.48;5.13;;;20.90;88.20;;;;;;7381459;19;20354;-77
2023/08/10 04:10:23;;;;;;;10.30;5.00;;;20.90;88.30;;;;;;7380862;19;20015;-77
2023/08/10 04:12:52;;;;;;;12.45;5.35;;;20.80;88.60;;;;;;7382199;19;20011;-77
2023/08/10 04:15:22;;;;;;;16.20;5.22;;;20.80;89.00;;;;;;7381804;19;20006;-76
2023/08/10 04:17:53;;;;;;;10.00;5.28;;;20.80;88.70;;;;;;7381404;19;20010;-76
2023/08/10 04:20:21;;;;;;;;;;;20.70;88.80;;;;;;7407334;19;20272;-75
2023/08/10 04:22:50;;;;;;;16.70;5.43;;;20.80;89.10;;;;;;7380762;19;19954;-76
2023/08/10 04:25:19;;;;;;;9.43;5.22;;;20.70;89.30;;;;;;7380911;19;20006;-76
2023/08/10 04:27:48;;;;;;;11.93;5.35;;;20.80;89.40;;;;;;7381371;19;20014;-76
2023/08/10 04:30:16;;;;;;;15.15;4.88;;;20.80;88.80;;;;;;7381225;19;20011;-77
2023/08/10 04:32:45;;;;;;;12.07;5.28;;;20.80;88.70;;;;;;7381028;19;20013;-76
2023/08/10 04:35:16;;;;;;;11.43;5.22;;;20.80;88.80;;;;;;7402962;19;20024;-77
2023/08/10 04:37:45;;;;;;;;;;;20.80;88.90;;;;;;7380789;19;20431;-77
2023/08/10 04:40:14;;;;;;;9.30;4.78;;;20.80;89.00;;;;;;7381090;19;19911;-77
2023/08/10 04:42:44;;;;;;;9.32;4.70;;;20.80;88.70;;;;;;7380881;19;20066;-77
2023/08/10 04:45:14;;;;;;;10.13;4.43;;;20.80;88.50;;;;;;7381204;19;20023;-77
2023/08/10 04:47:43;;;;;;;9.40;4.38;;;20.80;88.40;;;;;;7380056;19;20102;-77
2023/08/10 04:50:12;;;;;;;15.05;4.88;;;20.80;88.30;;;;;;7401327;19;20014;-76
2023/08/10 04:52:44;;;;;;;10.45;4.70;;;20.80;88.40;;;;;;7379421;19;20362;-77
2023/08/10 04:55:13;;;;;;;10.05;4.43;;;20.80;88.60;;;;;;7379918;19;20099;-77
2023/08/10 04:57:42;;;;;;;15.13;5.15;;;20.80;88.50;;;;;;7378435;19;20091;-77
2023/08/10 05:00:13;;;;;;;11.90;5.40;;;20.80;88.50;;;;;;7380538;19;20010;-78
2023/08/10 05:02:42;;;;;;;13.90;5.60;;;20.80;88.70;;;;;;7380006;19;20034;-77
2023/08/10 05:05:12;;;;;;;12.75;5.43;;;20.70;88.90;;;;;;7401195;19;20029;-77
2023/08/10 05:07:44;;;;;;;10.15;5.07;;;20.80;89.10;;;;;;7379203;19;20019;-77
2023/08/10 05:10:13;;;;;;;6.38;4.65;;;20.80;89.10;;;;;;7378825;19;20010;-77
2023/08/10 05:12:42;;;;;;;15.00;4.72;;;20.80;88.80;;;;;;7379195;19;20006;-77
2023/08/10 05:15:12;;;;;;;7.50;4.50;;;20.80;88.80;;;;;;7379419;19;20003;-77
2023/08/10 05:17:41;;;;;;;20.08;4.60;;;20.80;88.70;;;;;;7379713;19;20168;-76
2023/08/10 05:20:13;;;;;;;15.68;5.05;;;20.80;88.80;;;;;;7400878;19;20021;-77
2023/08/10 05:22:45;;;;;;;12.20;4.95;;;20.90;88.90;;;;;;7378826;19;20009;-77
2023/08/10 05:25:15;;;;;;;9.32;5.20;;;20.80;88.80;;;;;;7379313;19;20006;-77
2023/08/10 05:27:43;;;;;;;10.63;5.15;;;20.90;89.00;;;;;;7379570;19;20002;-76
2023/08/10 05:30:13;;;;;;;13.35;4.55;;;21.00;89.10;;;;;;7378828;19;20020;-77
2023/08/10 05:32:45;;;;;;;16.95;5.35;;;21.00;89.30;;;;;;7378793;19;20372;-76
2023/08/10 05:35:14;;;;;;;;;;;21.00;89.30;;;;;;7399303;19;20361;-76
2023/08/10 05:37:45;;;;;;;9.88;5.38;;;21.10;89.40;;;;;;7375258;19;19917;-76
2023/08/10 05:40:14;;;;;;;;;;;21.10;89.40;;;;;;7378948;19;20019;-77
2023/08/10 05:42:44;;;;;;;15.23;5.32;;;21.20;89.50;;;;;;7378329;19;19903;-77
2023/08/10 05:45:16;;;;;;;7.68;5.03;;;21.20;89.50;;;;;;7378227;19;20300;-77
2023/08/10 05:47:46;;;;;;;28.67;5.22;;;21.30;89.70;;;;;;7377959;19;20418;-77
2023/08/10 05:50:15;;;;;;;8.85;5.03;;;21.30;89.70;;;;;;7399860;19;20070;-78
2023/08/10 05:52:47;;;;;;;11.18;5.50;;;21.40;89.70;;;;;;7378754;19;20345;-77
2023/08/10 05:55:16;;;;;;;13.25;6.18;;;21.40;89.70;;;;;;7378930;19;20726;-77
2023/08/10 05:57:45;;;;;;;10.65;6.35;;;21.50;89.80;;;;;;7378370;19;20071;-77
2023/08/10 06:00:16;;;;;;;41.03;9.43;;;21.50;89.80;;;;;;7379561;19;19999;-77
2023/08/10 06:02:45;;;;;;;;;;;21.50;90.00;;;;;;7380344;19;20067;-78
2023/08/10 06:05:15;;;;;;;33.35;9.63;;;21.60;90.00;;;;;;7399642;19;19926;-76
2023/08/10 06:07:47;;;;;;;167.95;30.58;;;21.70;90.10;;;;;;7376935;19;20022;-76
2023/08/10 06:10:16;;;;;;;69.43;14.70;;;21.70;90.30;;;;;;7379875;19;20003;-76
2023/08/10 06:12:44;;;;;;;37.40;10.45;;;21.70;90.40;;;;;;7386665;19;20013;-77
2023/08/10 06:15:14;;;;;;;44.28;11.40;;;21.70;90.50;;;;;;7385583;19;20031;-77
2023/08/10 06:17:44;;;;;;;50.00;10.52;;;21.80;90.60;;;;;;7385638;19;20070;-77
2023/08/10 06:20:16;;;;;;;31.23;7.88;;;21.80;90.70;;;;;;7404072;19;20012;-76
2023/08/10 06:22:48;;;;;;;19.63;7.20;;;21.80;90.80;;;;;;7384758;19;20009;-78
2023/08/10 06:25:18;;;;;;;18.50;6.47;;;21.80;90.80;;;;;;7384659;19;20003;-77
2023/08/10 06:27:49;;;;;;;21.38;6.45;;;21.80;91.10;;;;;;7385467;19;20015;-77
2023/08/10 06:30:18;;;;;;;15.27;6.65;;;21.80;90.60;;;;;;7384892;19;20006;-77
2023/08/10 06:32:47;;;;;;;30.05;7.05;;;21.90;90.60;;;;;;7384244;19;20006;-77
2023/08/10 06:35:16;;;;;;;37.97;8.32;;;22.00;90.70;;;;;;7411169;19;20024;-76
2023/08/10 06:37:49;;;;;;;41.63;8.05;;;22.10;90.70;;;;;;7384191;19;20003;-77
2023/08/10 06:40:18;;;;;;;43.42;8.05;;;22.10;90.60;;;;;;7384791;19;20018;-76
2023/08/10 06:42:47;;;;;;;38.75;12.57;;;22.20;90.60;;;;;;7384505;19;20292;-76
2023/08/10 06:45:16;;;;;;;28.80;9.13;;;22.30;90.50;;;;;;7384895;19;20006;-76
2023/08/10 06:47:49;;;;;;;22.10;6.68;;;22.40;90.40;;;;;;7384080;19;20014;-76
2023/08/10 06:50:18;;;;;;;16.00;5.32;;;22.50;90.00;;;;;;7405642;19;20220;-76
2023/08/10 06:52:49;;;;;;;13.35;5.05;;;22.50;89.60;;;;;;7383380;19;20006;-75
2023/08/10 06:55:38;;;;;;;;;;;22.60;89.20;;;;;;7385352;19;20007;-79
2023/08/10 07:01:31;;;;;;;15.27;5.10;;;22.60;88.60;;;;;;7388631;19;19986;-82
2023/08/10 07:03:59;;;;;;;14.55;4.63;;;22.60;88.70;;;;;;7390270;19;20007;-80
2023/08/10 07:06:28;;;;;;;13.55;4.28;;;22.70;88.80;;;;;;7386907;19;20043;-80
2023/08/10 07:09:00;;;;;;;14.10;5.35;;;22.80;88.40;;;;;;7413616;19;20327;-79
2023/08/10 07:11:28;;;;;;;;;;;22.80;87.90;;;;;;7408734;19;20027;-80
2023/08/10 07:21:22;;;;;;;;;;;;;;;;;;;;;
2023/08/10 07:54:38;;;;;;;12.05;3.53;;;23.50;84.10;;;;;;7357229;19;20014;-81
2023/08/10 08:32:05;;;;;;;10.77;3.10;;;23.80;84.20;;;;;;7383320;19;20059;-80
2023/08/10 08:34:40;;;;;;;7.78;3.50;;;23.80;83.60;;;;;;7387263;19;20264;-81
2023/08/10 08:37:09;;;;;;;8.40;3.25;;;23.70;84.00;;;;;;7385120;19;19998;-80
2023/08/10 08:39:40;;;;;;;9.60;3.85;;;23.70;84.60;;;;;;7383398;19;20581;-81
2023/08/10 08:42:42;;;;;;;15.93;3.55;;;23.70;84.90;;;;;;7385740;19;19999;-86
2023/08/10 08:45:13;;;;;;;7.57;3.40;;;23.70;84.90;;;;;;7386882;19;20016;-80
2023/08/10 08:47:45;;;;;;;13.63;3.35;;;23.80;85.10;;;;;;7384930;19;20010;-80
2023/08/10 08:50:50;;;;;;;5.95;3.35;;;23.80;85.50;;;;;;7408138;19;20011;-81
2023/08/10 08:53:22;;;;;;;10.65;2.95;;;23.70;84.90;;;;;;7388782;19;20009;-83
2023/08/10 08:56:19;;;;;;;8.45;3.35;;;23.80;84.60;;;;;;7388229;19;20776;-82
2023/08/10 08:58:49;;;;;;;11.07;3.35;;;23.90;84.70;;;;;;7386377;19;20009;-78
2023/08/10 09:01:21;;;;;;;6.88;3.42;;;23.90;84.80;;;;;;7386137;19;20007;-77
2023/08/10 09:13:14;;;;;;;4.18;2.60;;;24.10;84.60;;;;;;7370995;19;20043;-80
2023/08/10 09:16:44;;;;;;;16.83;3.08;;;24.10;84.70;;;;;;7381834;19;20023;-80
2023/08/10 09:19:18;;;;;;;8.77;2.78;;;24.20;84.30;;;;;;7381859;19;20006;-81
2023/08/10 09:28:10;;;;;;;5.25;2.08;;;24.40;83.80;;;;;;7346127;19;20017;-79
2023/08/10 09:33:58;;;;;;;5.80;2.90;;;24.50;83.50;;;;;;7383480;19;20105;-80
2023/08/10 09:36:29;;;;;;;4.68;2.50;;;24.50;83.50;;;;;;7381949;19;20006;-80
2023/08/10 09:38:59;;;;;;;4.93;2.78;;;24.60;83.40;;;;;;7381211;19;20010;-78
2023/08/10 09:48:59;;;;;;;;;;;;;;;;;;;;;
2023/08/10 09:55:21;;;;;;;7.32;2.30;;;25.00;82.50;;;;;;7403103;19;20036;-84
2023/08/10 09:57:53;;;;;;;6.43;2.50;;;25.10;82.00;;;;;;7382394;19;20390;-81
2023/08/10 10:09:59;;;;;;;3.08;2.00;;;25.20;81.50;;;;;;7404623;19;20014;-79
2023/08/10 10:41:45;;;;;;;3.58;2.10;;;26.00;80.40;;;;;;7382140;19;20021;-79
2023/08/10 10:47:50;;;;;;;3.83;2.10;;;26.10;79.30;;;;;;7408505;19;19990;-82
2023/08/10 10:51:10;;;;;;;4.05;2.67;;;26.20;79.00;;;;;;7386392;19;20033;-82
2023/08/10 11:02:41;;;;;;;4.00;2.00;;;26.10;78.70;;;;;;7361904;19;20081;-78
2023/08/10 11:08:54;;;;;;;4.15;2.30;;;26.10;78.80;;;;;;7413200;19;20006;-81
2023/08/10 11:11:29;;;;;;;3.15;2.03;;;26.20;78.30;;;;;;7389861;19;20003;-80
2023/08/10 11:13:58;;;;;;;4.32;1.88;;;26.20;77.50;;;;;;7389598;19;20006;-79
2023/08/10 11:16:27;;;;;;;3.47;1.70;;;26.40;77.40;;;;;;7385475;19;20015;-79
2023/08/10 11:18:58;;;;;;;4.15;1.88;;;26.40;77.00;;;;;;7385977;19;20002;-77
2023/08/10 11:21:27;;;;;;;5.38;2.47;;;26.60;77.30;;;;;;7385236;19;20229;-76
2023/08/10 11:24:00;;;;;;;5.93;2.42;;;26.70;77.00;;;;;;7383250;19;20011;-76
2023/08/10 11:26:28;;;;;;;4.45;2.33;;;26.80;76.50;;;;;;7402680;19;20058;-76
2023/08/10 11:28:57;;;;;;;5.97;2.20;;;26.90;76.70;;;;;;7382754;19;20003;-77
2023/08/10 11:31:26;;;;;;;1.92;1.70;;;27.10;75.90;;;;;;7382763;19;20007;-77
2023/08/10 11:33:54;;;;;;;2.25;1.90;;;27.10;75.80;;;;;;7383185;19;20038;-77
2023/08/10 11:36:28;;;;;;;3.70;2.03;;;27.20;75.70;;;;;;7383550;19;20058;-76
2023/08/10 11:38:57;;;;;;;6.75;3.42;;;27.30;76.30;;;;;;7382499;19;20011;-76
2023/08/10 11:41:26;;;;;;;6.65;2.72;;;27.40;74.60;;;;;;7405426;19;20018;-77
2023/08/10 11:43:54;;;;;;;4.35;2.92;;;27.40;74.20;;;;;;7382118;19;20030;-77
2023/08/10 11:46:25;;;;;;;3.08;2.15;;;27.40;73.60;;;;;;7381664;19;20066;-77
2023/08/10 11:48:55;;;;;;;4.38;1.95;;;27.40;73.80;;;;;;7384430;19;20123;-77
2023/08/10 11:51:23;;;;;;;6.68;3.35;;;27.40;73.30;;;;;;7382788;19;20003;-77
2023/08/10 11:53:55;;;;;;;3.38;2.20;;;27.40;73.00;;;;;;7381806;19;20031;-76
2023/08/10 11:56:23;;;;;;;5.80;2.00;;;27.40;73.00;;;;;;7403859;19;20019;-76
2023/08/10 11:58:52;;;;;;;2.70;1.90;;;27.40;73.00;;;;;;7381700;19;20076;-76
2023/08/10 12:01:21;;;;;;;5.45;1.65;;;27.40;73.20;;;;;;7381714;19;20767;-76
2023/08/10 12:03:51;;;;;;;3.83;2.22;;;27.30;73.40;;;;;;7381944;19;20026;-76
2023/08/10 12:06:20;;;;;;;8.43;5.50;;;27.40;73.80;;;;;;7382345;19;20023;-75
2023/08/10 12:08:51;;;;;;;8.43;2.70;;;27.30;73.80;;;;;;7382271;19;20014;-75
2023/08/10 12:11:22;;;;;;;3.85;2.00;;;27.30;73.40;;;;;;7403005;19;20006;-76
2023/08/10 12:13:59;;;;;;;10.07;3.33;;;27.30;73.40;;;;;;7385274;19;20030;-82
2023/08/10 12:16:28;;;;;;;5.25;2.20;;;27.30;73.60;;;;;;7382044;19;20008;-77
2023/08/10 12:18:59;;;;;;;4.22;2.00;;;27.20;72.90;;;;;;7385107;19;20280;-80
2023/08/10 12:21:28;;;;;;;2.25;1.90;;;27.20;73.20;;;;;;7399285;19;20007;-78
2023/08/10 12:29:10;;;;;;;8.80;3.30;;;27.20;73.40;;;;;;7309458;19;20010;-78
2023/08/10 12:38:01;;;;;;;4.60;2.20;;;27.20;73.00;;;;;;7409222;19;19985;-78
2023/08/10 12:51:48;;;;;;;2.70;1.85;;;27.10;73.70;;;;;;7332207;19;20037;-75
2023/08/10 12:55:00;;;;;;;3.85;2.03;;;27.10;73.80;;;;;;7387830;19;20006;-81
2023/08/10 12:57:29;;;;;;;6.07;2.70;;;27.10;74.00;;;;;;7380448;19;20168;-77
2023/08/10 12:59:59;;;;;;;3.03;2.00;;;27.10;73.40;;;;;;7381229;19;20027;-77
2023/08/10 13:02:28;;;;;;;6.53;2.25;;;27.00;73.40;;;;;;7402804;19;20010;-77
2023/08/10 13:04:56;;;;;;;5.15;2.10;;;27.00;73.40;;;;;;7378238;19;20010;-77
2023/08/10 13:19:55;;;;;;;3.30;1.80;;;27.60;74.00;;;;;;7392302;19;20007;-76
2023/08/10 13:22:23;;;;;;;4.80;2.08;;;27.90;72.90;;;;;;7376882;19;20003;-75
2023/08/10 13:24:52;;;;;;;4.30;1.90;;;28.00;71.40;;;;;;7377534;19;20007;-76
2023/08/10 13:27:22;;;;;;;7.50;2.10;;;28.20;70.70;;;;;;7377360;19;20030;-74
2023/08/10 13:29:51;;;;;;;2.20;1.80;;;28.30;70.00;;;;;;7380551;19;20013;-76
2023/08/10 13:32:21;;;;;;;3.10;1.80;;;28.40;70.20;;;;;;7402401;19;20019;-78
2023/08/10 13:34:53;;;;;;;3.17;2.00;;;28.60;69.00;;;;;;7385322;19;20027;-79
2023/08/10 13:37:22;;;;;;;2.15;1.80;;;28.60;68.00;;;;;;7382604;19;20697;-77
2023/08/10 13:39:51;;;;;;;6.97;2.13;;;28.60;68.50;;;;;;7379278;19;20024;-77
2023/08/10 13:42:22;;;;;;;7.00;2.00;;;28.60;67.90;;;;;;7386195;19;20003;-77
2023/08/10 13:44:51;;;;;;;6.45;2.20;;;28.40;66.50;;;;;;7383436;19;20022;-80
2023/08/10 13:47:28;;;;;;;4.00;1.98;;;28.40;67.10;;;;;;7404683;19;20591;-80
2023/08/10 13:50:01;;;;;;;4.10;1.92;;;28.40;67.00;;;;;;7382207;19;20010;-82
2023/08/10 13:52:30;;;;;;;2.85;1.67;;;28.50;66.60;;;;;;7382198;19;20006;-78
2023/08/10 13:55:05;;;;;;;7.70;2.20;;;28.60;67.40;;;;;;7406889;19;20059;-85
2023/08/10 13:57:36;;;;;;;4.15;1.90;;;28.60;67.50;;;;;;7382946;19;20086;-80
2023/08/10 14:00:22;;;;;;;2.92;1.83;;;28.70;66.10;;;;;;7408610;19;20006;-81
2023/08/10 14:03:13;;;;;;;4.97;2.05;;;28.70;66.90;;;;;;7389188;19;20267;-80
2023/08/10 14:05:47;;;;;;;2.78;2.00;;;28.80;67.50;;;;;;7386988;19;20022;-79
2023/08/10 14:11:29;;;;;;;1.67;1.58;;;28.90;67.10;;;;;;7406622;19;19975;-79
2023/08/10 14:13:57;;;;;;;4.10;1.83;;;28.90;66.80;;;;;;7381831;19;20042;-77
2023/08/10 14:16:26;;;;;;;3.65;1.85;;;29.00;66.00;;;;;;7381280;19;20002;-80
2023/08/10 14:18:55;;;;;;;2.45;2.00;;;29.00;66.10;;;;;;7385138;19;20038;-80
2023/08/10 14:21:45;;;;;;;3.00;1.98;;;29.10;65.90;;;;;;7387353;19;20007;-83
2023/08/10 14:24:15;;;;;;;2.65;2.10;;;29.20;67.10;;;;;;7382861;19;20028;-80
2023/08/10 14:26:44;;;;;;;4.28;2.10;;;29.20;65.50;;;;;;7392646;19;20023;-78
2023/08/10 14:29:43;;;;;;;7.75;2.30;;;29.20;64.20;;;;;;7411031;19;20011;-81
2023/08/10 14:32:24;;;;;;;3.42;2.00;;;29.30;65.20;;;;;;7395994;19;20023;-80
2023/08/10 14:35:27;;;;;;;7.38;2.22;;;29.30;65.00;;;;;;7395277;19;20017;-82
2023/08/10 14:38:00;;;;;;;2.28;1.70;;;29.40;65.30;;;;;;7391461;19;20048;-80
2023/08/10 14:40:29;;;;;;;7.40;2.10;;;29.40;65.20;;;;;;7390242;19;20017;-79
2023/08/10 14:46:32;;;;;;;5.50;2.05;;;29.50;65.30;;;;;;7408090;19;20281;-80
2023/08/10 14:49:06;;;;;;;2.37;1.70;;;29.50;65.70;;;;;;7390051;19;20117;-82
2023/08/10 14:51:55;;;;;;;7.80;2.60;;;29.60;65.80;;;;;;7387864;19;20251;-83
2023/08/10 14:54:26;;;;;;;3.70;2.83;;;29.70;65.90;;;;;;7387934;19;20006;-80
2023/08/10 14:57:25;;;;;;;4.00;2.60;;;29.70;65.90;;;;;;7390435;19;20006;-84
2023/08/10 14:59:56;;;;;;;4.78;2.42;;;29.70;65.60;;;;;;7390536;19;19995;-79
2023/08/10 15:02:28;;;;;;;12.13;2.30;;;29.70;65.00;;;;;;7408173;19;20021;-78
2023/08/10 15:11:36;;;;;;;6.05;1.92;;;29.80;64.90;;;;;;7407996;19;20010;-80
2023/08/10 15:20:43;;;;;;;2.95;2.20;;;29.90;64.40;;;;;;7394246;19;20007;-81
2023/08/10 15:23:53;;;;;;;2.55;2.17;;;29.90;64.60;;;;;;7393950;19;20024;-79
2023/08/10 15:26:23;;;;;;;6.65;2.53;;;29.90;63.80;;;;;;7396578;19;20010;-80
2023/08/10 15:29:19;;;;;;;12.90;2.92;;;30.00;65.40;;;;;;7390580;19;20061;-80
2023/08/10 15:31:49;;;;;;;7.00;2.25;;;30.10;64.90;;;;;;7384770;19;20036;-77
2023/08/10 15:34:17;;;;;;;5.80;2.15;;;30.10;65.00;;;;;;7385737;19;20014;-78
2023/08/10 15:36:46;;;;;;;2.38;1.92;;;30.20;65.10;;;;;;7386476;19;20066;-79
2023/08/10 15:39:15;;;;;;;3.80;2.22;;;30.40;64.50;;;;;;7386720;19;20020;-79
2023/08/10 15:48:54;;;;;;;4.75;2.10;;;30.80;62.70;;;;;;7382847;19;20003;-78
2023/08/10 15:51:24;;;;;;;2.20;1.90;;;31.00;63.00;;;;;;7384189;19;19999;-77
2023/08/10 15:54:34;;;;;;;2.67;1.83;;;31.10;62.50;;;;;;7383613;19;20898;-83
2023/08/10 15:57:03;;;;;;;3.13;2.08;;;31.20;61.90;;;;;;7386309;19;20082;-78
2023/08/10 16:02:15;;;;;;;6.70;3.45;;;31.50;61.50;;;;;;7362171;19;20003;-77
2023/08/10 16:04:47;;;;;;;3.92;2.65;;;31.90;59.60;;;;;;7401586;19;20006;-78
2023/08/10 16:07:17;;;;;;;5.88;2.60;;;32.40;59.50;;;;;;7380462;19;20351;-77
2023/08/10 16:09:45;;;;;;;6.72;2.17;;;33.00;58.40;;;;;;7380350;19;20018;-76
2023/08/10 16:12:14;;;;;;;5.55;3.00;;;33.70;57.00;;;;;;7378956;19;20250;-78
2023/08/10 16:17:40;;;;;;;19.15;2.25;;;35.10;54.90;;;;;;7380400;19;20006;-78
2023/08/10 16:20:12;;;;;;;2.22;1.80;;;36.00;53.70;;;;;;7405145;19;20003;-81
2023/08/10 16:22:41;;;;;;;10.88;2.13;;;36.70;52.70;;;;;;7390112;19;20026;-80
2023/08/10 16:25:11;;;;;;;2.47;2.03;;;37.40;51.10;;;;;;7390039;19;20311;-81
2023/08/10 16:27:40;;;;;;;3.37;2.10;;;38.00;50.50;;;;;;7394327;19;20078;-81
2023/08/10 16:30:11;;;;;;;11.57;2.38;;;38.50;49.40;;;;;;7396816;19;20019;-81
2023/08/10 16:32:39;;;;;;;7.30;1.80;;;39.00;49.30;;;;;;7399493;19;20038;-81
2023/08/10 16:35:11;;;;;;;3.92;1.83;;;39.40;47.80;;;;;;7428260;19;20031;-81
2023/08/10 16:37:40;;;;;;;3.55;1.67;;;39.80;47.60;;;;;;7411158;19;20019;-80
2023/08/10 16:40:11;;;;;;;4.15;1.38;;;40.10;47.10;;;;;;7394174;19;20006;-81
2023/08/10 16:42:40;;;;;;;5.63;1.73;;;40.40;46.30;;;;;;7391694;19;20010;-81
2023/08/10 16:45:11;;;;;;;4.72;2.00;;;40.80;46.00;;;;;;7391713;19;19999;-81
2023/08/10 16:47:39;;;;;;;7.55;1.60;;;41.10;45.30;;;;;;7391093;19;20038;-80
2023/08/10 16:50:12;;;;;;;2.90;1.80;;;41.40;45.00;;;;;;7411001;19;20104;-80
2023/08/10 16:52:41;;;;;;;4.07;1.40;;;41.60;44.80;;;;;;7388997;19;20248;-80
2023/08/10 16:55:11;;;;;;;6.03;1.67;;;41.80;44.50;;;;;;7388053;19;20010;-80
2023/08/10 16:57:40;;;;;;;4.13;1.45;;;41.90;44.50;;;;;;7389633;19;20278;-80
2023/08/10 17:00:10;;;;;;;2.65;1.83;;;41.70;44.50;;;;;;7391164;19;20038;-80
2023/08/10 17:02:39;;;;;;;3.05;1.92;;;41.60;45.00;;;;;;7389756;19;20066;-81
2023/08/10 17:05:12;;;;;;;4.13;1.60;;;41.80;44.90;;;;;;7410346;19;20346;-81